createdAt,value
2023-04-20T00:00:11.188Z,93768.56
2023-04-20T00:02:38.741Z,93763.09
2023-04-20T00:05:09.301Z,93762.53
2023-04-20T00:07:36.805Z,93764.38
2023-04-20T00:10:04.393Z,93761.31
2023-04-20T00:12:31.076Z,93752.16
2023-04-20T00:14:57.737Z,93753.94
2023-04-20T00:17:24.386Z,93748.72
2023-04-20T00:19:51.439Z,93745.25
2023-04-20T00:22:18.056Z,93745.25
2023-04-20T00:24:44.649Z,93741.81
2023-04-20T00:27:11.929Z,93742.50
2023-04-20T00:29:38.556Z,93748.22
2023-04-20T00:32:05.460Z,93745.00
2023-04-20T00:34:32.102Z,93747.00
2023-04-20T00:36:58.670Z,93738.53
2023-04-20T00:39:25.415Z,93733.66
2023-04-20T00:41:52.096Z,93742.34
2023-04-20T00:44:18.691Z,93745.56
2023-04-20T00:46:46.568Z,93733.16
2023-04-20T00:49:13.292Z,93735.34
2023-04-20T00:51:40.035Z,93733.22
2023-04-20T00:54:07.028Z,93740.44
2023-04-20T00:56:34.252Z,93732.75
2023-04-20T00:59:02.385Z,93731.06
2023-04-20T01:01:29.116Z,93728.06
2023-04-20T01:03:56.095Z,93734.56
2023-04-20T01:06:22.857Z,93739.47
2023-04-20T01:08:51.152Z,93730.81
2023-04-20T01:11:18.310Z,93728.03
2023-04-20T01:13:45.565Z,93729.44
2023-04-20T01:16:13.035Z,93724.56
2023-04-20T01:18:51.145Z,93734.50
2023-04-20T01:21:20.019Z,93734.06
2023-04-20T01:23:46.953Z,93737.19
2023-04-20T01:26:16.884Z,93728.75
2023-04-20T01:28:44.186Z,93733.66
2023-04-20T01:31:11.896Z,93731.97
2023-04-20T01:33:38.953Z,93732.56
2023-04-20T01:36:07.428Z,93724.81
2023-04-20T01:38:34.877Z,93720.50
2023-04-20T01:41:04.511Z,93719.09
2023-04-20T01:43:31.731Z,93714.16
2023-04-20T01:45:59.667Z,93706.94
2023-04-20T01:48:26.364Z,93713.41
2023-04-20T01:50:53.542Z,93705.59
2023-04-20T01:53:20.982Z,93695.97
2023-04-20T01:55:48.594Z,93690.44
2023-04-20T01:58:15.771Z,93702.06
2023-04-20T02:00:42.490Z,93702.97
2023-04-20T02:03:09.460Z,93699.59
2023-04-20T02:05:36.152Z,93702.69
2023-04-20T02:08:02.847Z,93696.78
2023-04-20T02:10:29.498Z,93694.31
2023-04-20T02:12:56.219Z,93697.09
2023-04-20T02:15:22.903Z,93695.81
2023-04-20T02:17:52.541Z,93696.56
2023-04-20T02:20:22.401Z,93700.28
2023-04-20T02:22:49.074Z,93704.53
2023-04-20T02:25:15.787Z,93711.19
2023-04-20T02:27:42.673Z,93708.97
2023-04-20T02:30:10.569Z,93707.38
2023-04-20T02:32:37.575Z,93698.94
2023-04-20T02:35:04.766Z,93697.78
2023-04-20T02:37:31.643Z,93698.50
2023-04-20T02:39:58.437Z,93714.72
2023-04-20T02:42:25.122Z,93705.94
2023-04-20T02:44:52.896Z,93705.41
2023-04-20T02:47:19.848Z,93707.47
2023-04-20T02:49:47.336Z,93710.72
2023-04-20T02:52:14.227Z,93696.13
2023-04-20T02:54:41.032Z,93705.16
2023-04-20T02:57:07.701Z,93709.59
2023-04-20T02:59:34.420Z,93707.78
2023-04-20T03:02:01.122Z,93705.41
2023-04-20T03:04:28.135Z,93700.50
2023-04-20T03:06:54.887Z,93706.50
2023-04-20T03:09:22.134Z,93711.41
2023-04-20T03:11:49.636Z,93703.19
2023-04-20T03:14:16.908Z,93699.06
2023-04-20T03:16:43.764Z,93700.78
2023-04-20T03:19:10.711Z,93709.63
2023-04-20T03:21:37.369Z,93705.66
2023-04-20T03:24:06.974Z,93693.72
2023-04-20T03:26:33.592Z,93699.97
2023-04-20T03:29:02.183Z,93703.69
2023-04-20T03:31:28.812Z,93704.19
2023-04-20T03:33:55.540Z,93709.50
2023-04-20T03:36:22.272Z,93711.19
2023-04-20T03:38:48.890Z,93705.16
2023-04-20T03:41:15.984Z,93710.19
2023-04-20T03:43:42.570Z,93704.50
2023-04-20T03:46:09.241Z,93708.38
2023-04-20T03:48:35.917Z,93705.84
2023-04-20T03:51:02.663Z,93714.78
2023-04-20T03:53:29.337Z,93706.13
2023-04-20T03:55:56.206Z,93708.22
2023-04-20T03:58:22.903Z,93712.16
2023-04-20T04:00:49.556Z,93718.53
2023-04-20T04:03:16.389Z,93717.47
2023-04-20T04:05:43.338Z,93714.00
2023-04-20T04:08:09.986Z,93713.19
2023-04-20T04:10:36.631Z,93720.13
2023-04-20T04:13:03.302Z,93714.63
2023-04-20T04:15:29.903Z,93725.63
2023-04-20T04:17:56.573Z,93722.44
2023-04-20T04:20:23.258Z,93726.72
2023-04-20T04:22:49.928Z,93716.53
2023-04-20T04:25:17.455Z,93718.31
2023-04-20T04:27:46.481Z,93730.84
2023-04-20T04:30:13.810Z,93731.03
2023-04-20T04:32:41.372Z,93725.16
2023-04-20T04:35:08.510Z,93726.63
2023-04-20T04:37:35.140Z,93722.81
2023-04-20T04:40:04.437Z,93723.19
2023-04-20T04:42:31.194Z,93734.59
2023-04-20T04:44:58.582Z,93735.16
2023-04-20T04:47:25.629Z,93740.09
2023-04-20T04:49:52.330Z,93740.94
2023-04-20T04:52:18.976Z,93741.47
2023-04-20T04:54:45.944Z,93744.09
2023-04-20T04:57:12.730Z,93752.63
2023-04-20T04:59:39.376Z,93742.16
2023-04-20T05:02:06.045Z,93747.00
2023-04-20T05:04:32.868Z,93748.00
2023-04-20T05:06:59.647Z,93753.41
2023-04-20T05:09:26.669Z,93753.78
2023-04-20T05:11:53.253Z,93758.28
2023-04-20T05:14:19.935Z,93754.44
2023-04-20T05:16:46.545Z,93748.38
2023-04-20T05:19:13.229Z,93757.84
2023-04-20T05:21:40.007Z,93760.00
2023-04-20T05:24:07.311Z,93758.00
2023-04-20T05:26:33.970Z,93748.47
2023-04-20T05:29:00.626Z,93763.63
2023-04-20T05:31:27.512Z,93752.97
2023-04-20T05:33:54.146Z,93763.22
2023-04-20T05:36:20.990Z,93763.97
2023-04-20T05:38:47.642Z,93761.72
2023-04-20T05:41:14.265Z,93768.19
2023-04-20T05:43:41.103Z,93767.59
2023-04-20T05:46:07.963Z,93770.72
2023-04-20T05:48:34.653Z,93763.06
2023-04-20T05:51:01.287Z,93767.91
2023-04-20T05:53:27.886Z,93767.34
2023-04-20T05:55:54.489Z,93769.41
2023-04-20T05:58:21.253Z,93775.72
2023-04-20T06:00:47.866Z,93771.88
2023-04-20T06:03:14.680Z,93771.88
2023-04-20T06:05:41.620Z,93763.28
2023-04-20T06:08:08.443Z,93765.41
2023-04-20T06:10:36.316Z,93765.06
2023-04-20T06:13:03.080Z,93771.59
2023-04-20T06:15:30.145Z,93761.81
2023-04-20T06:17:57.104Z,93762.94
2023-04-20T06:20:23.888Z,93764.03
2023-04-20T06:22:50.617Z,93762.81
2023-04-20T06:25:17.240Z,93766.47
2023-04-20T06:27:43.904Z,93768.25
2023-04-20T06:30:11.763Z,93767.97
2023-04-20T06:32:38.600Z,93775.81
2023-04-20T06:35:06.639Z,93772.00
2023-04-20T06:37:33.331Z,93777.72
2023-04-20T06:39:59.971Z,93772.09
2023-04-20T06:42:27.237Z,93777.19
2023-04-20T06:44:53.894Z,93773.34
2023-04-20T06:47:20.841Z,93776.53
2023-04-20T06:49:47.515Z,93784.63
2023-04-20T06:52:14.116Z,93789.19
2023-04-20T06:54:40.813Z,93788.72
2023-04-20T06:57:07.472Z,93792.19
2023-04-20T06:59:34.069Z,93789.50
2023-04-20T07:02:02.526Z,93791.75
2023-04-20T07:04:29.416Z,93795.81
2023-04-20T07:06:56.161Z,93791.44
2023-04-20T07:09:23.285Z,93796.00
2023-04-20T07:11:50.108Z,93790.88
2023-04-20T07:14:16.765Z,93795.78
2023-04-20T07:16:43.548Z,93797.03
2023-04-20T07:19:10.415Z,93796.06
2023-04-20T07:21:37.237Z,93797.38
2023-04-20T07:24:04.178Z,93802.19
2023-04-20T07:26:31.249Z,93798.69
2023-04-20T07:28:57.919Z,93797.78
2023-04-20T07:31:24.664Z,93806.72
2023-04-20T07:33:51.446Z,93798.78
2023-04-20T07:36:18.185Z,93796.50
2023-04-20T07:38:44.805Z,93789.81
2023-04-20T07:41:11.752Z,93786.06
2023-04-20T07:43:39.241Z,93790.28
2023-04-20T07:46:06.077Z,93793.88
2023-04-20T07:48:34.379Z,93790.53
2023-04-20T07:51:02.232Z,93787.84
2023-04-20T07:53:29.854Z,93787.75
2023-04-20T07:55:56.564Z,93788.38
2023-04-20T07:58:23.223Z,93793.53
2023-04-20T08:00:49.864Z,93787.19
2023-04-20T08:03:16.573Z,93789.38
2023-04-20T08:05:43.296Z,93795.47
2023-04-20T08:08:10.273Z,93789.59
2023-04-20T08:10:37.302Z,93791.88
2023-04-20T08:13:04.003Z,93790.88
2023-04-20T08:15:31.632Z,93789.69
2023-04-20T08:17:58.616Z,93802.25
2023-04-20T08:20:25.430Z,93800.06
2023-04-20T08:22:52.928Z,93801.78
2023-04-20T08:25:19.676Z,93803.38
2023-04-20T08:27:46.492Z,93801.78
2023-04-20T08:30:13.254Z,93808.84
2023-04-20T08:32:41.203Z,93803.72
2023-04-20T08:35:08.680Z,93810.06
2023-04-20T08:37:35.781Z,93805.97
2023-04-20T08:40:02.466Z,93807.53
2023-04-20T08:42:29.195Z,93815.56
2023-04-20T08:44:55.873Z,93807.06
2023-04-20T08:47:22.685Z,93809.22
2023-04-20T08:49:53.714Z,93806.59
2023-04-20T08:52:20.570Z,93813.97
2023-04-20T08:54:56.002Z,93799.38
2023-04-20T08:57:23.082Z,93810.41
2023-04-20T08:59:49.848Z,93812.09
2023-04-20T09:02:16.636Z,93817.69
2023-04-20T09:04:43.561Z,93815.78
2023-04-20T09:07:21.598Z,93810.19
2023-04-20T09:10:00.104Z,93815.59
2023-04-20T09:12:28.258Z,93817.41
2023-04-20T09:14:55.969Z,93815.41
2023-04-20T09:17:34.324Z,93818.03
2023-04-20T09:20:01.167Z,93807.44
2023-04-20T09:22:37.559Z,93818.44
2023-04-20T09:25:17.361Z,93801.38
2023-04-20T09:27:43.960Z,93811.94
2023-04-20T09:30:11.245Z,93807.19
2023-04-20T09:32:37.940Z,93803.81
2023-04-20T09:35:04.829Z,93798.63
2023-04-20T09:37:31.525Z,93796.06
2023-04-20T09:40:00.365Z,93795.84
2023-04-20T09:42:28.892Z,93798.94
2023-04-20T09:44:56.116Z,93800.44
2023-04-20T09:47:23.076Z,93796.06
2023-04-20T09:49:50.553Z,93797.22
2023-04-20T09:52:18.670Z,93790.94
2023-04-20T09:54:45.838Z,93787.22
2023-04-20T09:57:14.254Z,93782.91
2023-04-20T09:59:43.715Z,93791.16
2023-04-20T10:02:14.320Z,93780.25
2023-04-20T10:04:58.060Z,93779.47
2023-04-20T10:07:30.725Z,93780.28
2023-04-20T10:10:09.399Z,93777.59
2023-04-20T10:12:53.033Z,93775.34
2023-04-20T10:15:21.776Z,93772.88
2023-04-20T10:17:49.098Z,93776.66
2023-04-20T10:20:24.614Z,93777.75
2023-04-20T10:23:06.154Z,93770.88
2023-04-20T10:25:32.794Z,93770.31
2023-04-20T10:28:04.628Z,93764.56
2023-04-20T10:30:32.661Z,93761.13
2023-04-20T10:33:11.351Z,93767.28
2023-04-20T10:35:49.330Z,93756.06
2023-04-20T10:38:16.540Z,93753.44
2023-04-20T10:40:43.287Z,93754.59
2023-04-20T10:43:21.433Z,93758.84
2023-04-20T10:45:49.571Z,93749.97
2023-04-20T10:48:18.126Z,93759.97
2023-04-20T10:50:45.438Z,93744.16
2023-04-20T10:53:23.266Z,93754.56
2023-04-20T10:56:00.257Z,93754.16
2023-04-20T10:58:27.688Z,93754.13
2023-04-20T11:01:01.632Z,93744.19
2023-04-20T11:03:29.643Z,93748.84
2023-04-20T11:06:00.972Z,93749.22
2023-04-20T11:08:40.809Z,93749.97
2023-04-20T11:11:28.299Z,93741.81
2023-04-20T11:14:11.917Z,93740.66
2023-04-20T11:19:09.419Z,93738.75
2023-04-20T11:21:41.487Z,93740.97
2023-04-20T11:24:21.764Z,93736.81
2023-04-20T11:26:54.369Z,93727.38
2023-04-20T11:29:38.887Z,93725.13
2023-04-20T11:32:10.696Z,93719.78
2023-04-20T11:34:39.362Z,93717.91
2023-04-20T11:37:10.612Z,93721.84
2023-04-20T11:39:38.155Z,93730.13
2023-04-20T11:42:05.800Z,93722.41
2023-04-20T11:44:33.051Z,93713.59
2023-04-20T11:47:00.032Z,93720.38
2023-04-20T11:49:29.190Z,93713.72
2023-04-20T11:51:56.058Z,93708.94
2023-04-20T11:54:24.350Z,93720.09
2023-04-20T11:56:51.341Z,93711.75
2023-04-20T11:59:20.149Z,93715.19
2023-04-20T12:01:48.220Z,93713.03
2023-04-20T12:04:15.805Z,93716.38
2023-04-20T12:06:42.832Z,93708.94
2023-04-20T12:09:09.743Z,93708.31
2023-04-20T12:11:36.544Z,93714.03
2023-04-20T12:14:04.595Z,93722.63
2023-04-20T12:16:31.346Z,93722.63
2023-04-20T12:18:58.069Z,93730.75
2023-04-20T12:21:24.648Z,93723.34
2023-04-20T12:23:51.371Z,93724.03
2023-04-20T12:26:18.130Z,93734.28
2023-04-20T12:28:45.475Z,93716.31
2023-04-20T12:31:12.419Z,93721.00
2023-04-20T12:33:39.111Z,93719.41
2023-04-20T12:36:06.098Z,93722.56
2023-04-20T12:38:32.763Z,93711.09
2023-04-20T12:40:59.470Z,93707.28
2023-04-20T12:43:26.139Z,93702.66
2023-04-20T12:45:52.801Z,93701.88
2023-04-20T12:48:19.571Z,93698.81
2023-04-20T12:50:46.244Z,93701.47
2023-04-20T12:53:12.862Z,93700.34
2023-04-20T12:55:39.534Z,93685.69
2023-04-20T12:58:06.349Z,93695.66
2023-04-20T13:00:33.092Z,93693.25
2023-04-20T13:03:00.050Z,93695.53
2023-04-20T13:05:26.961Z,93703.94
2023-04-20T13:07:53.648Z,93692.47
2023-04-20T13:10:20.509Z,93693.94
2023-04-20T13:12:47.223Z,93690.66
2023-04-20T13:15:13.849Z,93687.81
2023-04-20T13:17:41.430Z,93691.75
2023-04-20T13:20:08.553Z,93691.56
2023-04-20T13:22:37.228Z,93686.25
2023-04-20T13:25:10.491Z,93685.47
2023-04-20T13:27:37.092Z,93681.69
2023-04-20T13:30:07.888Z,93686.28
2023-04-20T13:32:35.492Z,93686.00
2023-04-20T13:35:03.856Z,93686.22
2023-04-20T13:37:33.124Z,93689.56
2023-04-20T13:40:00.516Z,93697.88
2023-04-20T13:42:27.150Z,93694.19
2023-04-20T13:44:53.785Z,93703.44
2023-04-20T13:47:20.586Z,93697.28
2023-04-20T13:49:47.228Z,93694.81
2023-04-20T13:52:13.830Z,93686.28
2023-04-20T13:54:40.713Z,93688.25
2023-04-20T13:57:07.330Z,93685.03
2023-04-20T13:59:33.950Z,93689.06
2023-04-20T14:02:00.759Z,93684.53
2023-04-20T14:04:27.593Z,93690.34
2023-04-20T14:06:54.330Z,93699.25
2023-04-20T14:09:21.492Z,93701.97
2023-04-20T14:11:50.413Z,93703.31
2023-04-20T14:14:19.410Z,93710.22
2023-04-20T14:16:47.835Z,93709.78
2023-04-20T14:19:14.926Z,93714.66
2023-04-20T14:21:44.187Z,93713.19
2023-04-20T14:24:11.745Z,93708.28
2023-04-20T14:26:38.457Z,93714.03
2023-04-20T14:29:08.278Z,93709.47
2023-04-20T14:31:35.516Z,93715.63
2023-04-20T14:34:02.639Z,93721.13
2023-04-20T14:36:30.183Z,93725.59
2023-04-20T14:38:56.814Z,93726.03
2023-04-20T14:41:23.585Z,93714.22
2023-04-20T14:43:50.223Z,93713.06
2023-04-20T14:46:19.004Z,93701.50
2023-04-20T14:48:46.390Z,93707.28
2023-04-20T14:51:13.738Z,93714.22
2023-04-20T14:53:40.460Z,93713.03
2023-04-20T14:56:07.361Z,93713.06
2023-04-20T14:58:34.258Z,93718.78
2023-04-20T15:01:00.994Z,93719.94
2023-04-20T15:03:27.975Z,93717.28
2023-04-20T15:06:00.218Z,93733.00
2023-04-20T15:08:27.367Z,93730.75
2023-04-20T15:10:56.686Z,93727.28
2023-04-20T15:13:24.033Z,93731.91
2023-04-20T15:15:52.654Z,93729.16
2023-04-20T15:18:20.920Z,93731.75
2023-04-20T15:20:47.544Z,93731.75
2023-04-20T15:23:14.164Z,93725.69
2023-04-20T15:25:40.734Z,93726.47
2023-04-20T15:28:07.317Z,93724.13
2023-04-20T15:30:33.960Z,93728.78
2023-04-20T15:33:04.610Z,93724.16
2023-04-20T15:35:32.227Z,93722.28
2023-04-20T15:37:59.119Z,93715.72
2023-04-20T15:40:27.501Z,93714.56
2023-04-20T15:42:57.666Z,93709.22
2023-04-20T15:45:24.676Z,93718.44
2023-04-20T15:47:51.677Z,93701.06
2023-04-20T15:50:18.562Z,93712.53
2023-04-20T15:52:45.814Z,93707.97
2023-04-20T15:55:12.565Z,93705.31
2023-04-20T15:57:39.259Z,93707.50
2023-04-20T16:00:07.303Z,93709.78
2023-04-20T16:02:34.264Z,93713.19
2023-04-20T16:05:01.198Z,93714.41
2023-04-20T16:07:28.078Z,93715.66
2023-04-20T16:09:54.675Z,93722.19
2023-04-20T16:12:21.381Z,93718.69
2023-04-20T16:14:48.667Z,93715.66
2023-04-20T16:17:15.710Z,93719.06
2023-04-20T16:19:42.358Z,93712.16
2023-04-20T16:22:09.018Z,93709.88
2023-04-20T16:24:35.705Z,93711.88
2023-04-20T16:27:02.557Z,93708.41
2023-04-20T16:29:29.210Z,93710.22
2023-04-20T16:31:56.479Z,93700.19
2023-04-20T16:34:24.494Z,93705.56
2023-04-20T16:36:51.200Z,93707.88
2023-04-20T16:39:18.627Z,93702.50
2023-04-20T16:41:45.628Z,93701.28
2023-04-20T16:44:16.586Z,93701.72
2023-04-20T16:46:44.243Z,93702.47
2023-04-20T16:49:10.924Z,93703.25
2023-04-20T16:51:37.561Z,93695.22
2023-04-20T16:54:04.388Z,93692.81
2023-04-20T16:56:31.026Z,93699.00
2023-04-20T16:58:58.258Z,93694.78
2023-04-20T17:01:25.070Z,93702.56
2023-04-20T17:03:51.863Z,93694.06
2023-04-20T17:06:18.563Z,93701.84
2023-04-20T17:08:45.196Z,93699.56
2023-04-20T17:11:13.007Z,93705.75
2023-04-20T17:13:39.613Z,93704.97
2023-04-20T17:16:06.256Z,93708.03
2023-04-20T17:18:34.350Z,93709.16
2023-04-20T17:21:02.305Z,93710.72
2023-04-20T17:23:29.729Z,93714.19
2023-04-20T17:25:56.408Z,93705.75
2023-04-20T17:28:23.078Z,93704.94
2023-04-20T17:30:49.810Z,93713.34
2023-04-20T17:33:16.537Z,93706.50
2023-04-20T17:35:43.289Z,93715.72
2023-04-20T17:38:09.904Z,93708.44
2023-04-20T17:40:36.588Z,93711.84
2023-04-20T17:43:03.247Z,93705.72
2023-04-20T17:45:29.828Z,93705.75
2023-04-20T17:47:56.647Z,93711.09
2023-04-20T17:50:23.501Z,93709.50
2023-04-20T17:52:51.496Z,93711.88
2023-04-20T17:55:18.330Z,93719.19
2023-04-20T17:57:45.009Z,93725.66
2023-04-20T18:00:12.130Z,93725.22
2023-04-20T18:02:39.896Z,93724.91
2023-04-20T18:05:07.228Z,93727.59
2023-04-20T18:07:34.599Z,93726.34
2023-04-20T18:10:01.503Z,93728.69
2023-04-20T18:12:28.194Z,93730.66
2023-04-20T18:14:54.910Z,93723.66
2023-04-20T18:17:21.571Z,93731.09
2023-04-20T18:19:48.339Z,93727.97
2023-04-20T18:22:15.449Z,93720.34
2023-04-20T18:24:42.113Z,93731.06
2023-04-20T18:27:09.094Z,93733.69
2023-04-20T18:29:35.912Z,93728.81
2023-04-20T18:32:02.631Z,93729.59
2023-04-20T18:34:32.042Z,93733.41
2023-04-20T18:36:59.206Z,93730.72
2023-04-20T18:39:26.405Z,93743.03
2023-04-20T18:41:53.091Z,93738.78
2023-04-20T18:44:20.196Z,93739.59
2023-04-20T18:46:47.272Z,93750.22
2023-04-20T18:49:13.950Z,93743.31
2023-04-20T18:51:40.904Z,93752.91
2023-04-20T18:56:58.833Z,93749.88
2023-04-20T18:59:25.613Z,93759.53
2023-04-20T19:01:52.511Z,93758.84
2023-04-20T19:04:19.832Z,93757.28
2023-04-20T19:06:46.713Z,93755.16
2023-04-20T19:09:13.505Z,93760.16
2023-04-20T19:11:40.161Z,93763.34
2023-04-20T19:14:06.935Z,93768.59
2023-04-20T19:16:34.273Z,93767.75
2023-04-20T19:19:03.194Z,93767.53
2023-04-20T19:21:30.437Z,93761.44
2023-04-20T19:23:57.170Z,93767.22
2023-04-20T19:26:25.058Z,93763.34
2023-04-20T19:28:51.761Z,93757.84
2023-04-20T19:31:18.413Z,93763.28
2023-04-20T19:33:45.018Z,93771.00
2023-04-20T19:36:11.736Z,93766.75
2023-04-20T19:38:38.753Z,93767.16
2023-04-20T19:41:06.487Z,93773.31
2023-04-20T19:43:33.241Z,93766.34
2023-04-20T19:46:00.073Z,93767.59
2023-04-20T19:48:26.834Z,93764.06
2023-04-20T19:50:56.286Z,93765.63
2023-04-20T19:53:23.297Z,93769.94
2023-04-20T19:55:49.921Z,93759.91
2023-04-20T19:58:16.503Z,93770.81
2023-04-20T20:00:43.139Z,93773.84
2023-04-20T20:03:11.652Z,93766.91
2023-04-20T20:05:38.514Z,93767.59
2023-04-20T20:08:05.139Z,93761.91
2023-04-20T20:10:32.090Z,93761.69
2023-04-20T20:12:58.679Z,93769.69
2023-04-20T20:15:25.372Z,93767.75
2023-04-20T20:17:55.416Z,93765.53
2023-04-20T20:20:30.222Z,93775.81
2023-04-20T20:22:57.274Z,93764.22
2023-04-20T20:25:24.410Z,93767.03
2023-04-20T20:27:51.458Z,93769.81
2023-04-20T20:30:18.513Z,93770.97
2023-04-20T20:32:45.222Z,93767.06
2023-04-20T20:35:13.147Z,93773.44
2023-04-20T20:37:45.390Z,93769.19
2023-04-20T20:40:14.991Z,93765.47
2023-04-20T20:42:45.319Z,93774.63
2023-04-20T20:45:12.858Z,93764.44
2023-04-20T20:47:41.201Z,93762.53
2023-04-20T20:50:08.913Z,93775.97
2023-04-20T20:52:35.670Z,93764.06
2023-04-20T20:55:02.352Z,93764.03
2023-04-20T20:57:28.997Z,93768.00
2023-04-20T20:59:55.690Z,93767.13
2023-04-20T21:02:22.495Z,93772.00
2023-04-20T21:04:49.155Z,93775.91
2023-04-20T21:07:15.920Z,93780.47
2023-04-20T21:09:42.622Z,93768.69
2023-04-20T21:12:09.401Z,93770.13
2023-04-20T21:14:37.296Z,93771.59
2023-04-20T21:17:04.715Z,93770.78
2023-04-20T21:19:31.937Z,93783.53
2023-04-20T21:21:58.890Z,93780.41
2023-04-20T21:24:25.720Z,93774.03
2023-04-20T21:26:52.612Z,93775.16
2023-04-20T21:29:19.834Z,93768.63
2023-04-20T21:31:46.907Z,93769.47
2023-04-20T21:34:13.604Z,93774.19
2023-04-20T21:36:40.200Z,93780.53
2023-04-20T21:39:06.926Z,93764.63
2023-04-20T21:41:33.558Z,93774.50
2023-04-20T21:44:02.079Z,93773.09
2023-04-20T21:46:28.797Z,93770.00
2023-04-20T21:48:55.620Z,93773.66
2023-04-20T21:51:22.373Z,93773.81
2023-04-20T21:53:49.449Z,93776.38
2023-04-20T21:56:16.173Z,93779.81
2023-04-20T21:58:42.861Z,93769.19
2023-04-20T22:01:09.540Z,93787.22
2023-04-20T22:03:37.632Z,93780.22
2023-04-20T22:06:05.263Z,93771.56
2023-04-20T22:08:32.059Z,93780.75
2023-04-20T22:10:58.678Z,93775.88
2023-04-20T22:13:25.497Z,93770.81
2023-04-20T22:15:52.791Z,93773.38
2023-04-20T22:18:19.660Z,93765.63
2023-04-20T22:20:46.304Z,93763.69
2023-04-20T22:23:12.866Z,93770.28
2023-04-20T22:25:40.739Z,93767.28
2023-04-20T22:28:07.438Z,93767.03
2023-04-20T22:30:34.260Z,93761.63
2023-04-20T22:33:01.427Z,93764.25
2023-04-20T22:35:28.966Z,93761.75
2023-04-20T22:37:56.447Z,93767.59
2023-04-20T22:40:23.997Z,93769.00
2023-04-20T22:42:51.089Z,93774.50
2023-04-20T22:45:20.004Z,93770.28
2023-04-20T22:47:47.337Z,93763.22
2023-04-20T22:50:14.248Z,93757.47
2023-04-20T22:52:41.659Z,93764.56
2023-04-20T22:55:10.155Z,93766.97
2023-04-20T22:57:37.334Z,93771.16
2023-04-20T23:00:07.943Z,93762.56
2023-04-20T23:02:34.702Z,93773.81
2023-04-20T23:05:01.749Z,93765.38
2023-04-20T23:07:28.339Z,93762.09
2023-04-20T23:09:56.533Z,93756.81
2023-04-20T23:12:23.386Z,93766.53
2023-04-20T23:14:50.928Z,93754.22
2023-04-20T23:17:17.562Z,93756.59
2023-04-20T23:19:44.167Z,93750.50
2023-04-20T23:22:11.039Z,93754.75
2023-04-20T23:24:37.703Z,93749.41
2023-04-20T23:27:04.476Z,93740.78
2023-04-20T23:29:31.178Z,93747.03
2023-04-20T23:31:57.980Z,93749.22
2023-04-20T23:34:25.033Z,93751.84
2023-04-20T23:36:53.877Z,93748.28
2023-04-20T23:39:21.142Z,93738.06
2023-04-20T23:41:47.920Z,93739.41
2023-04-20T23:44:14.683Z,93736.53
2023-04-20T23:46:41.377Z,93738.03
2023-04-20T23:49:08.064Z,93739.47
2023-04-20T23:51:34.674Z,93730.47
2023-04-20T23:54:01.920Z,93730.19
2023-04-20T23:56:28.536Z,93727.44
2023-04-20T23:58:55.269Z,93727.78
